Time;durP1;ratioP1;P1;durP2;ratioP2;P2;SDS_P1;SDS_P2;PMS_P1;PMS_P2;Temp;Humidity;BMP_temperature;BMP_pressure;BME280_temperature;BME280_humidity;BME280_pressure;Samples;Min_cycle;Max_cycle;Signal;HPM_P1;HPM_P2
2023/09/10 00:00:41;;;;;;;0.73;0.73;;;19.40;99.90;;;;;;4415050;32;20638;-64
2023/09/10 00:03:07;;;;;;;7.53;1.12;;;19.30;99.90;;;;;;4415187;32;20477;-64
2023/09/10 00:05:32;;;;;;;1.85;1.02;;;19.20;99.90;;;;;;4416214;32;20066;-64
2023/09/10 00:08:00;;;;;;;0.70;0.70;;;19.20;99.90;;;;;;4414914;32;20173;-63
2023/09/10 00:10:26;;;;;;;1.55;0.95;;;19.20;99.90;;;;;;4401367;32;20540;-64
2023/09/10 00:12:52;;;;;;;1.02;0.90;;;19.10;99.90;;;;;;4412458;32;20134;-64
2023/09/10 00:15:17;;;;;;;3.10;1.30;;;19.10;99.90;;;;;;4416769;32;20065;-66
2023/09/10 00:17:43;;;;;;;2.00;1.10;;;19.10;99.90;;;;;;4414116;32;20451;-63
2023/09/10 00:20:10;;;;;;;3.28;1.15;;;19.00;99.90;;;;;;4415042;32;20070;-66
2023/09/10 00:22:37;;;;;;;2.03;1.17;;;19.00;99.90;;;;;;4416701;32;20089;-66
2023/09/10 00:25:04;;;;;;;1.67;1.30;;;19.00;99.90;;;;;;4418055;32;20078;-65
2023/09/10 00:27:29;;;;;;;1.50;0.68;;;19.00;99.90;;;;;;4414159;32;20373;-65
2023/09/10 00:29:55;;;;;;;1.10;0.95;;;19.00;99.90;;;;;;4399160;32;20106;-65
2023/09/10 00:32:21;;;;;;;1.25;1.00;;;19.00;99.90;;;;;;4416503;32;20089;-65
2023/09/10 00:34:47;;;;;;;7.70;0.90;;;19.00;99.90;;;;;;4413132;32;20089;-66
2023/09/10 00:37:12;;;;;;;0.98;0.88;;;19.00;99.90;;;;;;4415197;32;20081;-66
2023/09/10 00:39:38;;;;;;;9.05;1.10;;;19.00;99.90;;;;;;4413641;32;21303;-66
2023/09/10 00:42:04;;;;;;;0.75;0.70;;;18.90;99.90;;;;;;4414907;32;20711;-65
2023/09/10 00:44:29;;;;;;;1.52;1.20;;;18.90;99.90;;;;;;4414403;32;20482;-65
2023/09/10 00:46:56;;;;;;;0.82;0.82;;;18.80;99.90;;;;;;4413971;32;20125;-63
2023/09/10 00:49:22;;;;;;;2.90;1.55;;;18.80;99.90;;;;;;4400828;32;20097;-65
2023/09/10 00:51:48;;;;;;;1.87;1.08;;;18.80;99.90;;;;;;4417826;32;20084;-66
2023/09/10 00:54:16;;;;;;;2.92;1.23;;;18.80;99.90;;;;;;4414941;32;20094;-66
2023/09/10 00:56:42;;;;;;;12.50;2.25;;;18.80;99.90;;;;;;4414639;32;20109;-66
2023/09/10 00:59:08;;;;;;;4.10;1.33;;;18.70;99.90;;;;;;4412951;32;20092;-66
2023/09/10 01:01:34;;;;;;;1.98;1.30;;;18.70;99.90;;;;;;4413027;32;20094;-66
2023/09/10 01:04:01;;;;;;;0.57;0.57;;;18.60;99.90;;;;;;4410610;32;20402;-66
2023/09/10 01:06:26;;;;;;;1.87;1.05;;;18.60;99.90;;;;;;4411535;32;20090;-65
2023/09/10 01:08:52;;;;;;;2.00;0.85;;;18.60;99.90;;;;;;4415328;32;20093;-67
2023/09/10 01:11:35;;;;;;;1.25;1.08;;;18.50;99.90;;;;;;4413078;32;20588;-65
2023/09/10 01:14:34;;;;;;;1.67;1.00;;;18.30;99.90;;;;;;4410840;32;20101;-65
2023/09/10 01:17:09;;;;;;;1.23;0.90;;;18.30;99.90;;;;;;4406010;32;20113;-65
2023/09/10 01:19:53;;;;;;;0.68;0.68;;;18.30;99.90;;;;;;4413926;32;20588;-65
2023/09/10 01:22:36;;;;;;;2.67;1.45;;;18.30;99.90;;;;;;4415620;32;20081;-65
2023/09/10 01:25:03;;;;;;;2.42;1.17;;;18.30;99.90;;;;;;4401091;32;20098;-65
2023/09/10 01:27:29;;;;;;;3.47;1.33;;;18.20;99.90;;;;;;4410820;32;20145;-65
2023/09/10 01:29:54;;;;;;;2.28;1.40;;;18.20;99.90;;;;;;4409485;32;20069;-65
2023/09/10 01:32:32;;;;;;;3.17;1.08;;;18.10;99.90;;;;;;4410898;32;20439;-66
2023/09/10 01:35:13;;;;;;;2.03;1.48;;;18.10;99.90;;;;;;4411030;32;20129;-66
2023/09/10 01:37:48;;;;;;;0.85;0.60;;;18.10;99.90;;;;;;4412612;32;20124;-66
2023/09/10 01:40:20;;;;;;;0.95;0.93;;;18.30;99.90;;;;;;4412537;32;20528;-66
2023/09/10 01:42:48;;;;;;;0.98;0.82;;;18.20;99.90;;;;;;4413869;32;20553;-65
2023/09/10 01:45:14;;;;;;;1.37;0.90;;;18.00;99.90;;;;;;4396556;32;20062;-66
2023/09/10 01:47:40;;;;;;;1.62;1.00;;;17.80;99.90;;;;;;4414276;32;20064;-66
2023/09/10 01:50:06;;;;;;;1.45;1.23;;;17.90;99.90;;;;;;4412299;32;20102;-65
2023/09/10 01:52:32;;;;;;;1.75;1.08;;;17.90;99.90;;;;;;4412166;32;20077;-65
2023/09/10 01:54:57;;;;;;;2.03;1.42;;;18.00;99.90;;;;;;4412407;32;20082;-65
2023/09/10 01:57:23;;;;;;;1.67;0.90;;;18.00;99.90;;;;;;4414549;32;20092;-65
2023/09/10 01:59:48;;;;;;;1.25;1.15;;;18.00;99.90;;;;;;4412390;32;20180;-66
2023/09/10 02:02:15;;;;;;;1.17;0.75;;;18.00;99.90;;;;;;4413539;32;20105;-64
2023/09/10 02:04:40;;;;;;;14.82;1.55;;;17.90;99.90;;;;;;4415779;32;20129;-64
2023/09/10 02:07:06;;;;;;;1.23;1.02;;;17.90;99.90;;;;;;4415589;32;20148;-62
2023/09/10 02:09:31;;;;;;;4.72;2.22;;;17.90;99.90;;;;;;4414156;32;20123;-64
2023/09/10 02:11:57;;;;;;;2.33;1.12;;;17.90;99.90;;;;;;4415501;32;20607;-63
2023/09/10 02:14:23;;;;;;;0.73;0.62;;;17.80;99.90;;;;;;4415348;32;20556;-65
2023/09/10 02:16:49;;;;;;;2.85;1.23;;;17.70;99.90;;;;;;4413578;32;20078;-65
2023/09/10 02:19:14;;;;;;;2.60;1.37;;;17.60;99.90;;;;;;4416070;32;20105;-64
2023/09/10 02:21:40;;;;;;;1.70;1.10;;;17.60;99.90;;;;;;4412807;32;20111;-64
2023/09/10 02:24:05;;;;;;;2.50;1.60;;;17.60;99.90;;;;;;4414990;32;20124;-66
2023/09/10 02:26:31;;;;;;;1.70;1.23;;;17.60;99.90;;;;;;4411601;32;20076;-67
2023/09/10 02:28:56;;;;;;;1.30;1.17;;;17.70;99.90;;;;;;4408388;32;20066;-66
2023/09/10 02:31:22;;;;;;;1.12;1.00;;;17.60;99.90;;;;;;4412043;32;20161;-66
2023/09/10 02:33:47;;;;;;;1.10;1.00;;;17.60;99.90;;;;;;4410803;32;20082;-65
2023/09/10 02:36:13;;;;;;;1.08;1.00;;;17.60;99.90;;;;;;4417512;32;20073;-65
2023/09/10 02:38:38;;;;;;;1.30;1.20;;;17.50;99.90;;;;;;4412456;32;20073;-63
2023/09/10 02:41:04;;;;;;;2.35;1.02;;;17.40;99.90;;;;;;4413558;32;20077;-62
2023/09/10 02:43:29;;;;;;;1.77;1.05;;;17.50;99.90;;;;;;4416627;32;20062;-63
2023/09/10 02:45:55;;;;;;;3.65;1.83;;;17.50;99.90;;;;;;4410055;32;20101;-63
2023/09/10 02:48:20;;;;;;;3.83;1.62;;;17.50;99.90;;;;;;4413091;32;20069;-63
2023/09/10 02:50:46;;;;;;;4.32;1.73;;;17.40;99.90;;;;;;4412732;32;20097;-63
2023/09/10 02:53:11;;;;;;;4.03;1.77;;;17.40;99.90;;;;;;4414369;32;20089;-65
2023/09/10 02:55:37;;;;;;;1.40;1.02;;;17.30;99.90;;;;;;4397652;32;20105;-63
2023/09/10 02:58:02;;;;;;;5.93;1.73;;;17.30;99.90;;;;;;4414321;32;20082;-63
2023/09/10 03:00:28;;;;;;;0.98;0.88;;;17.20;99.90;;;;;;4415204;32;20070;-63
2023/09/10 03:02:55;;;;;;;2.35;1.20;;;17.10;99.90;;;;;;4415793;32;20070;-63
2023/09/10 03:05:21;;;;;;;2.97;1.65;;;17.10;99.90;;;;;;4413559;32;20098;-63
2023/09/10 03:07:48;;;;;;;2.17;1.30;;;17.10;99.90;;;;;;4413539;32;20682;-65
2023/09/10 03:10:14;;;;;;;2.20;1.30;;;17.10;99.90;;;;;;4413213;32;20058;-63
2023/09/10 03:12:39;;;;;;;2.08;1.50;;;17.10;99.90;;;;;;4414617;32;20089;-63
2023/09/10 03:15:05;;;;;;;1.27;1.17;;;17.20;99.90;;;;;;4416015;32;20056;-65
2023/09/10 03:17:31;;;;;;;2.28;1.40;;;17.20;99.90;;;;;;4412383;32;20094;-66
2023/09/10 03:19:56;;;;;;;2.37;1.35;;;17.20;99.90;;;;;;4412589;32;20066;-62
2023/09/10 03:22:22;;;;;;;3.87;1.00;;;17.20;99.90;;;;;;4416725;32;20077;-63
2023/09/10 03:24:47;;;;;;;1.15;1.08;;;17.00;99.90;;;;;;4415307;32;20587;-63
2023/09/10 03:27:13;;;;;;;0.93;0.70;;;17.00;99.90;;;;;;4411033;32;20090;-64
2023/09/10 03:29:38;;;;;;;7.40;1.87;;;17.00;99.90;;;;;;4414847;32;20062;-64
2023/09/10 03:32:06;;;;;;;5.45;2.03;;;17.10;99.90;;;;;;4412848;32;20082;-62
2023/09/10 03:34:31;;;;;;;1.45;1.00;;;17.10;99.90;;;;;;4413145;32;20085;-65
2023/09/10 03:36:58;;;;;;;1.87;1.27;;;17.10;99.90;;;;;;4411437;32;20587;-62
2023/09/10 03:39:24;;;;;;;0.70;0.60;;;17.10;99.90;;;;;;4401564;32;20965;-62
2023/09/10 03:41:50;;;;;;;14.50;1.00;;;17.10;99.90;;;;;;4416116;32;20069;-65
2023/09/10 03:44:16;;;;;;;4.35;2.00;;;17.10;99.90;;;;;;4415964;32;20155;-63
2023/09/10 03:46:41;;;;;;;19.25;1.80;;;17.10;99.90;;;;;;4414643;32;20177;-65
2023/09/10 03:49:06;;;;;;;2.03;1.27;;;17.00;99.90;;;;;;4415621;32;20491;-62
2023/09/10 03:51:32;;;;;;;2.72;2.17;;;17.00;99.90;;;;;;4416497;32;20082;-65
2023/09/10 03:53:57;;;;;;;1.62;1.35;;;16.90;99.90;;;;;;4419325;32;20115;-62
2023/09/10 03:56:23;;;;;;;1.60;1.20;;;16.90;99.90;;;;;;4412301;32;20105;-65
2023/09/10 03:58:49;;;;;;;4.15;1.67;;;17.00;99.90;;;;;;4415458;32;20828;-63
2023/09/10 04:01:14;;;;;;;1.35;1.00;;;17.00;99.90;;;;;;4415841;32;21363;-62
2023/09/10 04:03:40;;;;;;;1.02;0.98;;;16.90;99.90;;;;;;4415377;32;20115;-63
2023/09/10 04:06:05;;;;;;;2.12;1.20;;;16.90;99.90;;;;;;4413318;32;20140;-62
2023/09/10 04:08:31;;;;;;;1.70;1.05;;;17.00;99.90;;;;;;4415739;32;20089;-63
2023/09/10 04:10:56;;;;;;;1.98;1.20;;;16.90;99.90;;;;;;4414941;32;20113;-63
2023/09/10 04:13:22;;;;;;;0.93;0.93;;;16.80;99.90;;;;;;4416450;32;20445;-63
2023/09/10 04:15:47;;;;;;;1.17;0.90;;;16.60;99.90;;;;;;4414200;32;20092;-63
2023/09/10 04:18:12;;;;;;;1.48;1.37;;;16.60;99.90;;;;;;4417655;32;20196;-63
2023/09/10 04:20:38;;;;;;;0.90;0.90;;;16.60;99.90;;;;;;4414639;32;20070;-63
2023/09/10 04:23:03;;;;;;;4.15;1.58;;;16.60;99.90;;;;;;4416829;32;20090;-66
2023/09/10 04:25:29;;;;;;;2.65;1.67;;;16.50;99.90;;;;;;4415302;32;20141;-62
2023/09/10 04:27:54;;;;;;;2.80;0.55;;;16.50;99.90;;;;;;4416263;32;20118;-63
2023/09/10 04:30:20;;;;;;;15.80;1.08;;;16.50;99.90;;;;;;4412809;32;20382;-63
2023/09/10 04:32:45;;;;;;;0.73;0.73;;;16.60;99.90;;;;;;4400232;32;20085;-62
2023/09/10 04:35:12;;;;;;;1.55;1.45;;;16.60;99.90;;;;;;4415599;32;20136;-63
2023/09/10 04:37:38;;;;;;;3.58;1.70;;;16.50;99.90;;;;;;4411503;32;20085;-63
2023/09/10 04:40:07;;;;;;;2.58;1.25;;;16.40;99.90;;;;;;4416563;32;20073;-63
2023/09/10 04:42:33;;;;;;;1.15;1.05;;;16.40;99.90;;;;;;4413600;32;20070;-63
2023/09/10 04:44:58;;;;;;;0.90;0.90;;;16.40;99.90;;;;;;4414725;32;20137;-64
2023/09/10 04:47:24;;;;;;;2.17;1.33;;;16.40;99.90;;;;;;4414854;32;20120;-63
2023/09/10 04:49:49;;;;;;;1.70;1.00;;;16.50;99.90;;;;;;4412244;32;20085;-63
2023/09/10 04:52:16;;;;;;;3.53;2.00;;;16.60;99.90;;;;;;4415610;32;20062;-64
2023/09/10 04:54:42;;;;;;;0.90;0.90;;;16.60;99.90;;;;;;4415392;32;20086;-63
2023/09/10 04:57:10;;;;;;;4.85;1.65;;;16.60;99.90;;;;;;4416851;32;20089;-63
2023/09/10 04:59:36;;;;;;;1.10;0.90;;;16.60;99.90;;;;;;4412240;32;20137;-63
2023/09/10 05:02:03;;;;;;;1.23;1.00;;;16.60;99.90;;;;;;4413396;32;20145;-63
2023/09/10 05:04:29;;;;;;;2.70;1.48;;;16.50;99.90;;;;;;4413101;32;20143;-63
2023/09/10 05:06:54;;;;;;;0.70;0.70;;;16.50;99.90;;;;;;4412767;32;20501;-63
2023/09/10 05:09:20;;;;;;;1.00;0.90;;;16.60;99.90;;;;;;4412120;32;20120;-64
2023/09/10 05:11:45;;;;;;;2.17;1.48;;;16.70;99.90;;;;;;4411264;32;20608;-63
2023/09/10 05:14:11;;;;;;;1.12;1.05;;;16.60;99.90;;;;;;4414502;32;20081;-64
2023/09/10 05:16:36;;;;;;;1.42;1.23;;;16.60;99.90;;;;;;4414422;32;20173;-64
2023/09/10 05:19:02;;;;;;;1.30;0.82;;;16.70;99.90;;;;;;4398331;32;20846;-64
2023/09/10 05:21:27;;;;;;;5.70;1.37;;;16.70;99.90;;;;;;4414094;32;20081;-64
2023/09/10 05:23:53;;;;;;;0.60;0.60;;;16.70;99.90;;;;;;4411221;32;20085;-64
2023/09/10 05:26:18;;;;;;;2.25;1.33;;;16.70;99.90;;;;;;4410891;32;20144;-64
2023/09/10 05:28:44;;;;;;;2.58;1.05;;;16.70;99.90;;;;;;4412854;32;20140;-64
2023/09/10 05:31:09;;;;;;;4.45;1.30;;;16.60;99.90;;;;;;4413453;32;20504;-64
2023/09/10 05:33:35;;;;;;;1.30;1.12;;;16.60;99.90;;;;;;4412693;32;20102;-64
2023/09/10 05:36:01;;;;;;;1.83;1.12;;;16.70;99.90;;;;;;4414534;32;20106;-64
2023/09/10 05:38:26;;;;;;;1.37;0.82;;;16.70;99.90;;;;;;4399032;32;20144;-64
2023/09/10 05:40:54;;;;;;;1.85;1.08;;;16.80;99.90;;;;;;4413462;32;20442;-64
2023/09/10 05:43:19;;;;;;;1.45;1.00;;;16.90;99.90;;;;;;4412460;32;20598;-64
2023/09/10 05:45:46;;;;;;;1.67;1.00;;;16.90;99.90;;;;;;4415293;32;20112;-64
2023/09/10 05:48:11;;;;;;;0.80;0.80;;;17.00;99.90;;;;;;4413568;32;20121;-64
2023/09/10 05:50:39;;;;;;;8.73;1.17;;;17.10;99.90;;;;;;4412454;32;20144;-64
2023/09/10 05:53:05;;;;;;;2.42;1.17;;;17.30;99.90;;;;;;4415019;32;20081;-64
2023/09/10 05:55:30;;;;;;;2.35;1.30;;;17.40;99.90;;;;;;4416269;32;20228;-64
2023/09/10 05:57:56;;;;;;;2.55;1.10;;;17.50;99.90;;;;;;4412356;32;20122;-64
2023/09/10 06:00:22;;;;;;;0.80;0.80;;;17.50;99.90;;;;;;4414907;32;20930;-64
2023/09/10 06:02:49;;;;;;;1.85;1.00;;;17.60;99.90;;;;;;4401811;32;20073;-64
2023/09/10 06:05:15;;;;;;;0.77;0.70;;;17.70;99.90;;;;;;4414212;32;20387;-64
2023/09/10 06:07:41;;;;;;;1.58;0.93;;;17.80;99.90;;;;;;4413991;32;20065;-64
2023/09/10 06:10:09;;;;;;;2.33;0.88;;;17.90;99.90;;;;;;4400963;32;20065;-64
2023/09/10 06:12:37;;;;;;;1.73;0.80;;;17.90;99.90;;;;;;4413277;32;20077;-64
2023/09/10 06:15:05;;;;;;;1.35;1.10;;;17.90;99.90;;;;;;4413696;32;20153;-64
2023/09/10 06:17:30;;;;;;;0.85;0.65;;;18.00;99.90;;;;;;4414551;32;20095;-64
2023/09/10 06:19:56;;;;;;;1.60;1.10;;;18.10;99.90;;;;;;4412561;32;20550;-64
2023/09/10 06:22:21;;;;;;;1.20;1.10;;;18.20;99.90;;;;;;4413115;32;20076;-64
2023/09/10 06:24:47;;;;;;;1.27;1.17;;;18.30;99.90;;;;;;4414647;32;20066;-64
2023/09/10 06:27:12;;;;;;;1.87;1.10;;;18.40;99.90;;;;;;4413558;32;20082;-64
2023/09/10 06:29:38;;;;;;;1.10;1.00;;;18.40;99.90;;;;;;4413519;32;20136;-64
2023/09/10 06:32:04;;;;;;;3.10;1.20;;;18.60;99.90;;;;;;4415509;32;20109;-64
2023/09/10 06:34:29;;;;;;;1.37;0.90;;;18.60;99.90;;;;;;4414584;32;20573;-64
2023/09/10 06:36:55;;;;;;;0.60;0.60;;;18.70;99.90;;;;;;4412291;32;20062;-64
2023/09/10 06:39:21;;;;;;;1.70;1.45;;;18.70;99.90;;;;;;4399366;32;20125;-64
2023/09/10 06:41:47;;;;;;;1.20;0.80;;;18.80;99.90;;;;;;4412254;32;20123;-64
2023/09/10 06:44:12;;;;;;;1.08;0.95;;;18.90;99.90;;;;;;4413959;32;20085;-64
2023/09/10 06:46:38;;;;;;;1.00;0.90;;;19.00;99.90;;;;;;4415753;32;20121;-64
2023/09/10 06:49:03;;;;;;;1.23;0.80;;;19.00;99.90;;;;;;4412044;32;20486;-64
2023/09/10 06:51:29;;;;;;;0.77;0.77;;;19.10;99.90;;;;;;4399578;32;20183;-64
2023/09/10 06:53:54;;;;;;;0.57;0.55;;;19.30;99.90;;;;;;4415973;32;20085;-64
2023/09/10 06:56:20;;;;;;;1.30;0.90;;;19.30;99.90;;;;;;4412523;32;20089;-64
2023/09/10 06:58:45;;;;;;;1.15;0.90;;;19.40;99.90;;;;;;4411506;32;20082;-64
2023/09/10 07:01:12;;;;;;;1.58;1.27;;;19.50;99.90;;;;;;4415775;32;20073;-65
2023/09/10 07:03:38;;;;;;;1.30;0.68;;;19.60;99.90;;;;;;4412322;32;20069;-65
2023/09/10 07:06:05;;;;;;;1.20;0.85;;;19.70;99.90;;;;;;4415111;32;20102;-65
2023/09/10 07:08:30;;;;;;;1.35;0.88;;;19.80;99.90;;;;;;4411818;32;20597;-65
2023/09/10 07:10:57;;;;;;;2.20;0.73;;;20.00;99.90;;;;;;4412446;32;20082;-65
2023/09/10 07:13:22;;;;;;;1.12;0.88;;;20.00;99.90;;;;;;4414213;32;20070;-65
2023/09/10 07:15:48;;;;;;;0.55;0.55;;;20.10;99.90;;;;;;4415604;32;20303;-65
2023/09/10 07:18:13;;;;;;;1.12;1.02;;;20.20;99.90;;;;;;4413359;32;20074;-65
2023/09/10 07:20:39;;;;;;;1.20;0.98;;;20.30;99.90;;;;;;4417156;32;20077;-63
2023/09/10 07:23:04;;;;;;;1.00;0.82;;;20.40;99.90;;;;;;4416038;32;20097;-62
2023/09/10 07:25:30;;;;;;;0.52;0.52;;;20.50;99.90;;;;;;4414184;32;20469;-63
2023/09/10 07:27:55;;;;;;;0.57;0.55;;;20.60;99.90;;;;;;4397418;32;20073;-63
2023/09/10 07:30:20;;;;;;;1.65;0.65;;;20.70;99.90;;;;;;4414002;32;20078;-64
2023/09/10 07:32:46;;;;;;;0.80;0.80;;;20.80;99.90;;;;;;4413519;32;20110;-65
2023/09/10 07:35:13;;;;;;;0.40;0.40;;;20.80;99.90;;;;;;4414246;32;20124;-65
2023/09/10 07:37:38;;;;;;;7.72;2.00;;;20.90;99.90;;;;;;4415642;32;20069;-65
2023/09/10 07:40:04;;;;;;;3.42;0.85;;;21.00;99.90;;;;;;4413514;32;20107;-65
2023/09/10 07:42:30;;;;;;;1.12;0.88;;;21.10;99.90;;;;;;4414033;32;20081;-64
2023/09/10 07:44:55;;;;;;;0.88;0.82;;;21.20;99.90;;;;;;4412630;32;20505;-65
2023/09/10 07:47:21;;;;;;;0.47;0.47;;;21.30;99.90;;;;;;4413501;32;20061;-65
2023/09/10 07:49:50;;;;;;;0.90;0.77;;;21.40;99.90;;;;;;4413474;32;20088;-65
2023/09/10 07:52:15;;;;;;;1.87;1.25;;;21.40;99.90;;;;;;4416038;32;20605;-65
2023/09/10 07:54:42;;;;;;;0.70;0.70;;;21.50;99.90;;;;;;4411927;32;20105;-65
2023/09/10 07:57:08;;;;;;;0.70;0.70;;;21.70;99.90;;;;;;4416001;32;20101;-65
2023/09/10 07:59:33;;;;;;;0.50;0.50;;;21.70;99.90;;;;;;4415327;32;20524;-64
2023/09/10 08:02:01;;;;;;;5.03;1.15;;;21.80;99.90;;;;;;4414679;32;20073;-65
2023/09/10 08:04:26;;;;;;;4.47;0.77;;;21.90;99.90;;;;;;4413316;32;20110;-65
2023/09/10 08:06:53;;;;;;;0.65;0.65;;;22.00;99.90;;;;;;4416649;32;20093;-65
2023/09/10 08:09:18;;;;;;;0.50;0.50;;;22.10;99.90;;;;;;4411350;32;20453;-64
2023/09/10 08:11:44;;;;;;;10.52;0.95;;;22.20;99.90;;;;;;4412997;32;20090;-66
2023/09/10 08:14:10;;;;;;;0.98;0.93;;;22.30;99.90;;;;;;4414467;32;20544;-66
2023/09/10 08:16:35;;;;;;;0.50;0.50;;;22.40;99.90;;;;;;4415199;32;20101;-66
2023/09/10 08:19:01;;;;;;;1.70;0.90;;;22.50;99.90;;;;;;4416879;32;20552;-66
2023/09/10 08:21:26;;;;;;;0.57;0.57;;;22.70;99.90;;;;;;4415133;32;20090;-65
2023/09/10 08:23:52;;;;;;;0.88;0.85;;;22.90;99.90;;;;;;4417470;32;20069;-66
2023/09/10 08:26:18;;;;;;;0.68;0.68;;;23.00;99.90;;;;;;4414391;32;20394;-66
2023/09/10 08:28:44;;;;;;;0.80;0.47;;;23.20;99.90;;;;;;4411876;32;20207;-65
2023/09/10 08:31:09;;;;;;;0.50;0.50;;;23.20;99.90;;;;;;4414605;32;20070;-64
2023/09/10 08:33:35;;;;;;;0.50;0.50;;;23.30;99.90;;;;;;4413201;32;20077;-64
2023/09/10 08:36:00;;;;;;;0.50;0.50;;;23.40;99.90;;;;;;4416265;32;20088;-64
2023/09/10 08:38:26;;;;;;;0.40;0.40;;;23.50;99.90;;;;;;4412342;32;20390;-65
2023/09/10 08:40:58;;;;;;;0.60;0.60;;;23.60;99.90;;;;;;4413369;32;20148;-64
2023/09/10 08:43:36;;;;;;;0.65;0.50;;;23.60;99.90;;;;;;4413101;32;20101;-65
2023/09/10 08:46:04;;;;;;;0.50;0.50;;;23.70;99.90;;;;;;4412713;32;20077;-65
2023/09/10 08:48:32;;;;;;;0.75;0.60;;;23.80;99.90;;;;;;4415882;32;20069;-66
2023/09/10 08:50:58;;;;;;;1.98;0.60;;;23.90;99.90;;;;;;4413424;32;20426;-66
2023/09/10 08:53:25;;;;;;;0.70;0.70;;;24.00;99.90;;;;;;4413977;32;20149;-65
2023/09/10 08:55:52;;;;;;;1.12;0.80;;;24.10;99.90;;;;;;4416117;32;20069;-65
2023/09/10 08:58:19;;;;;;;0.77;0.73;;;24.30;99.90;;;;;;4414399;32;20512;-65
2023/09/10 09:00:46;;;;;;;2.40;0.75;;;24.40;99.90;;;;;;4412115;32;20086;-65
2023/09/10 09:03:12;;;;;;;1.33;0.50;;;24.50;99.90;;;;;;4415282;32;20489;-65
2023/09/10 09:05:40;;;;;;;0.70;0.70;;;24.70;99.90;;;;;;4414796;32;20069;-65
2023/09/10 09:08:15;;;;;;;2.95;1.15;;;24.70;99.90;;;;;;4413220;32;20119;-65
2023/09/10 09:10:40;;;;;;;2.55;1.15;;;24.90;99.90;;;;;;4412405;32;20070;-65
2023/09/10 09:13:10;;;;;;;0.55;0.55;;;25.00;99.90;;;;;;4413126;32;20082;-66
2023/09/10 09:15:38;;;;;;;0.53;0.53;;;25.20;99.90;;;;;;4414101;32;20474;-65
2023/09/10 09:18:07;;;;;;;0.37;0.35;;;25.40;99.90;;;;;;4399211;32;20086;-65
2023/09/10 09:20:34;;;;;;;0.70;0.60;;;25.50;99.90;;;;;;4414499;32;20093;-65
2023/09/10 09:23:09;;;;;;;0.30;0.30;;;25.60;99.90;;;;;;4394307;32;20070;-65
2023/09/10 09:25:36;;;;;;;1.75;1.00;;;25.80;99.90;;;;;;4416716;32;20140;-65
2023/09/10 09:28:03;;;;;;;1.80;0.50;;;25.90;99.90;;;;;;4399067;32;20526;-65
2023/09/10 09:30:28;;;;;;;0.40;0.40;;;26.20;99.90;;;;;;4397804;32;21374;-65
2023/09/10 09:32:56;;;;;;;0.50;0.50;;;26.40;99.90;;;;;;4412518;32;20105;-65
2023/09/10 09:35:22;;;;;;;0.45;0.40;;;26.50;99.90;;;;;;4400525;32;20098;-65
2023/09/10 09:37:47;;;;;;;3.97;1.08;;;26.60;99.90;;;;;;4411264;32;20093;-65
2023/09/10 09:40:13;;;;;;;0.43;0.43;;;26.70;99.90;;;;;;4410633;32;20516;-65
2023/09/10 09:42:39;;;;;;;1.00;0.40;;;26.90;99.90;;;;;;4413590;32;20187;-65
2023/09/10 09:45:05;;;;;;;0.93;0.62;;;27.00;99.90;;;;;;4412518;32;20062;-66
2023/09/10 09:47:31;;;;;;;3.30;0.57;;;27.20;99.90;;;;;;4414985;32;20085;-66
2023/09/10 09:49:58;;;;;;;1.27;0.65;;;27.40;99.50;;;;;;4414741;32;20062;-66
2023/09/10 09:52:24;;;;;;;0.40;0.37;;;27.50;99.60;;;;;;4411366;32;20065;-66
2023/09/10 09:54:50;;;;;;;0.45;0.20;;;27.60;98.40;;;;;;4411809;32;20089;-66
2023/09/10 09:57:16;;;;;;;0.30;0.30;;;27.70;98.50;;;;;;4409524;32;20074;-66
2023/09/10 09:59:42;;;;;;;0.35;0.35;;;27.70;97.10;;;;;;4418469;32;20248;-66
2023/09/10 10:02:14;;;;;;;0.32;0.32;;;27.70;97.70;;;;;;4413988;32;20057;-66
2023/09/10 10:04:41;;;;;;;0.77;0.55;;;27.90;98.20;;;;;;4414790;32;20074;-66
2023/09/10 10:07:08;;;;;;;0.77;0.47;;;28.20;97.30;;;;;;4412397;32;20057;-66
2023/09/10 10:09:35;;;;;;;0.70;0.37;;;28.40;95.70;;;;;;4415662;32;20122;-65
2023/09/10 10:12:02;;;;;;;0.60;0.40;;;28.50;95.60;;;;;;4413428;32;20077;-66
2023/09/10 10:14:31;;;;;;;2.25;0.88;;;28.70;95.80;;;;;;4412427;32;20081;-66
2023/09/10 10:16:57;;;;;;;1.75;0.65;;;28.70;95.30;;;;;;4412796;32;20082;-66
2023/09/10 10:19:23;;;;;;;1.55;0.52;;;28.70;95.00;;;;;;4413758;32;20243;-66
2023/09/10 10:21:52;;;;;;;0.90;0.50;;;28.90;94.20;;;;;;4416723;32;20108;-66
2023/09/10 10:24:18;;;;;;;0.40;0.40;;;29.10;93.80;;;;;;4413745;32;20097;-66
2023/09/10 10:26:46;;;;;;;0.20;0.20;;;29.20;92.80;;;;;;4410452;32;20162;-66
2023/09/10 10:29:12;;;;;;;0.30;0.30;;;29.30;92.80;;;;;;4409403;32;20077;-66
2023/09/10 10:31:40;;;;;;;0.30;0.30;;;29.40;91.90;;;;;;4415888;32;20479;-66
2023/09/10 10:34:14;;;;;;;0.30;0.30;;;29.20;91.90;;;;;;4411178;32;20089;-67
2023/09/10 10:36:57;;;;;;;0.47;0.47;;;29.30;92.60;;;;;;4411684;32;20113;-67
2023/09/10 10:39:32;;;;;;;0.28;0.28;;;29.40;91.10;;;;;;4413039;32;20078;-66
2023/09/10 10:42:02;;;;;;;0.47;0.37;;;29.50;91.20;;;;;;4412570;32;20058;-66
2023/09/10 10:44:35;;;;;;;5.43;0.88;;;29.60;92.40;;;;;;4412369;32;20125;-66
2023/09/10 10:47:07;;;;;;;0.40;0.20;;;29.60;91.80;;;;;;4415538;32;20078;-66
2023/09/10 10:49:34;;;;;;;0.30;0.25;;;29.60;90.80;;;;;;4419276;32;21400;-66
2023/09/10 10:52:05;;;;;;;0.77;0.50;;;29.80;90.80;;;;;;4417122;32;20072;-65
2023/09/10 10:54:33;;;;;;;1.70;0.57;;;30.10;90.50;;;;;;4414860;32;20072;-64
2023/09/10 10:56:58;;;;;;;0.15;0.15;;;30.20;90.90;;;;;;4402442;32;20133;-64
2023/09/10 10:59:25;;;;;;;0.10;0.10;;;30.30;90.30;;;;;;4413407;32;20145;-65
2023/09/10 11:02:15;;;;;;;1.73;1.08;;;30.50;90.40;;;;;;4414884;32;20158;-64
2023/09/10 11:04:58;;;;;;;0.15;0.15;;;30.60;88.30;;;;;;4403290;32;20313;-67
2023/09/10 11:07:24;;;;;;;1.30;0.50;;;30.70;88.40;;;;;;4413668;32;20081;-67
2023/09/10 11:09:50;;;;;;;0.40;0.40;;;30.80;87.30;;;;;;4415887;32;20136;-67
2023/09/10 11:12:16;;;;;;;0.10;0.10;;;30.90;85.90;;;;;;4414673;32;20272;-65
2023/09/10 11:15:03;;;;;;;0.28;0.20;;;30.80;85.60;;;;;;4402176;32;20080;-65
2023/09/10 11:17:32;;;;;;;0.65;0.40;;;30.60;88.10;;;;;;4403420;32;20068;-65
2023/09/10 11:19:58;;;;;;;0.20;0.20;;;30.80;86.90;;;;;;4414047;32;20057;-65
2023/09/10 11:22:24;;;;;;;0.88;0.30;;;31.20;85.60;;;;;;4402001;32;20057;-66
2023/09/10 11:25:06;;;;;;;0.43;0.35;;;31.10;85.70;;;;;;4401342;32;20106;-65
2023/09/10 11:27:34;;;;;;;0.35;0.20;;;31.50;85.20;;;;;;4411842;32;20094;-65
2023/09/10 11:30:06;;;;;;;1.65;0.40;;;31.60;84.40;;;;;;4395846;32;20571;-65
2023/09/10 11:32:32;;;;;;;0.52;0.50;;;31.90;85.20;;;;;;4413213;32;20069;-65
2023/09/10 11:35:18;;;;;;;0.28;0.28;;;32.30;84.50;;;;;;4412733;32;20413;-65
2023/09/10 11:37:47;;;;;;;0.15;0.15;;;32.60;82.90;;;;;;4400208;32;20069;-66
2023/09/10 11:40:13;;;;;;;0.73;0.57;;;32.80;81.00;;;;;;4387760;32;20096;-65
2023/09/10 11:42:42;;;;;;;0.20;0.20;;;33.00;79.30;;;;;;4398542;32;20069;-65
2023/09/10 11:45:09;;;;;;;0.15;0.15;;;33.20;78.20;;;;;;4399837;32;20493;-66
2023/09/10 11:47:35;;;;;;;0.10;0.10;;;33.20;79.10;;;;;;4412988;32;86035;-66
2023/09/10 11:50:03;;;;;;;1.85;0.50;;;33.30;77.80;;;;;;4413272;32;20105;-66
2023/09/10 11:52:29;;;;;;;6.03;1.37;;;33.40;76.80;;;;;;4416707;32;20084;-65
2023/09/10 11:54:56;;;;;;;0.20;0.20;;;33.70;74.20;;;;;;4414662;32;20188;-66
2023/09/10 11:57:22;;;;;;;0.75;0.60;;;33.90;74.00;;;;;;4397907;32;20109;-66
2023/09/10 11:59:50;;;;;;;1.73;0.95;;;34.20;73.70;;;;;;4400094;32;20081;-66
2023/09/10 12:02:16;;;;;;;1.85;0.55;;;34.50;73.10;;;;;;4415886;32;20066;-67
2023/09/10 12:04:42;;;;;;;0.20;0.20;;;34.70;71.10;;;;;;4416375;32;20046;-67
2023/09/10 12:07:07;;;;;;;0.20;0.20;;;34.60;71.20;;;;;;4416036;32;20490;-67
2023/09/10 12:09:33;;;;;;;0.95;0.35;;;34.40;72.30;;;;;;4416477;32;20080;-67
2023/09/10 12:12:06;;;;;;;0.40;0.40;;;34.50;71.40;;;;;;4402999;32;20097;-68
2023/09/10 12:14:31;;;;;;;0.30;0.30;;;34.90;70.30;;;;;;4411039;32;20086;-67
2023/09/10 12:16:57;;;;;;;0.30;0.30;;;34.90;71.40;;;;;;4415214;32;20644;-67
2023/09/10 12:19:23;;;;;;;0.40;0.40;;;35.10;69.60;;;;;;4414149;32;20073;-67
2023/09/10 12:21:50;;;;;;;0.88;0.62;;;35.00;70.30;;;;;;4413953;32;20124;-67
2023/09/10 12:24:16;;;;;;;1.02;0.30;;;34.90;70.00;;;;;;4413355;32;20073;-68
2023/09/10 12:26:43;;;;;;;0.47;0.47;;;35.20;70.50;;;;;;4414089;32;20520;-66
2023/09/10 12:29:10;;;;;;;0.80;0.43;;;35.20;69.20;;;;;;4414074;32;20430;-66
2023/09/10 12:31:36;;;;;;;0.93;0.40;;;35.00;69.10;;;;;;4414291;32;20057;-67
2023/09/10 12:34:02;;;;;;;0.10;0.10;;;35.40;69.60;;;;;;4415298;32;20683;-66
2023/09/10 12:36:28;;;;;;;1.73;0.73;;;36.00;68.80;;;;;;4411450;32;20089;-66
2023/09/10 12:38:54;;;;;;;0.30;0.30;;;35.90;66.90;;;;;;4412396;32;20596;-67
2023/09/10 12:41:20;;;;;;;0.20;0.20;;;36.20;64.20;;;;;;4413011;32;20148;-67
2023/09/10 12:43:45;;;;;;;0.62;0.28;;;35.90;64.50;;;;;;4413043;32;20766;-66